createdAt,value
2022-12-04T00:03:59.852Z,39
2022-12-04T00:09:00.147Z,38.9
2022-12-04T00:14:06.351Z,38.9
2022-12-04T00:19:07.338Z,38.8
2022-12-04T00:24:07.655Z,38.7
2022-12-04T00:29:08.007Z,38.7
2022-12-04T00:34:08.517Z,38.7
2022-12-04T00:39:08.838Z,38.6
2022-12-04T00:44:09.134Z,38.6
2022-12-04T00:49:09.472Z,38.6
2022-12-04T00:54:10.001Z,38.5
2022-12-04T00:59:10.292Z,38.4
2022-12-04T01:04:10.565Z,38.4
2022-12-04T01:09:11.098Z,38.4
2022-12-04T01:14:11.648Z,38.3
2022-12-04T01:19:12.177Z,38.2
2022-12-04T01:24:12.712Z,38.2
2022-12-04T01:29:13.046Z,38.2
2022-12-04T01:34:13.362Z,38.1
2022-12-04T01:39:13.644Z,38.1
2022-12-04T01:44:13.918Z,38.1
2022-12-04T01:49:14.216Z,38
2022-12-04T01:54:14.507Z,37.9
2022-12-04T01:59:14.753Z,37.9
2022-12-04T02:04:15.034Z,37.9
2022-12-04T02:09:15.281Z,37.8
2022-12-04T02:14:15.546Z,37.8
2022-12-04T02:19:15.802Z,37.7
2022-12-04T02:24:16.025Z,37.7
2022-12-04T02:29:16.243Z,37.7
2022-12-04T02:34:16.486Z,37.6
2022-12-04T02:39:16.754Z,37.6
2022-12-04T02:44:17.238Z,37.6
2022-12-04T02:49:17.498Z,37.5
2022-12-04T02:54:17.746Z,37.4
2022-12-04T02:59:18.194Z,37.4
2022-12-04T03:04:18.394Z,37.4
2022-12-04T03:09:18.599Z,37.4
2022-12-04T03:14:19.061Z,37.3
2022-12-04T03:19:19.333Z,37.2
2022-12-04T03:24:19.567Z,37.2
2022-12-04T03:29:19.800Z,37.2
2022-12-04T03:34:20.054Z,37.1
2022-12-04T03:39:20.283Z,37.1
2022-12-04T03:44:20.525Z,37.1
2022-12-04T03:49:20.956Z,37.1
2022-12-04T03:54:21.421Z,37
2022-12-04T03:59:21.883Z,36.9
2022-12-04T04:04:22.113Z,36.9
2022-12-04T04:09:22.575Z,36.9
2022-12-04T04:14:22.912Z,36.9
2022-12-04T04:19:23.475Z,36.8
2022-12-04T04:24:23.703Z,36.8
2022-12-04T04:29:23.937Z,36.7
2022-12-04T04:34:24.193Z,36.7
2022-12-04T04:39:24.416Z,36.7
2022-12-04T04:44:24.856Z,36.6
2022-12-04T04:49:25.335Z,36.6
2022-12-04T04:54:25.841Z,36.6
2022-12-04T04:59:26.318Z,36.6
2022-12-04T05:04:26.548Z,36.5
2022-12-04T05:09:26.769Z,36.5
2022-12-04T05:14:27.236Z,36.4
2022-12-04T05:19:27.690Z,36.4
2022-12-04T05:24:27.904Z,36.4
2022-12-04T05:29:31.590Z,36.3
2022-12-04T05:34:33.141Z,36.3
2022-12-04T05:39:33.356Z,36.2
2022-12-04T05:44:33.805Z,36.2
2022-12-04T05:49:34.104Z,36.2
2022-12-04T05:54:34.383Z,36.2
2022-12-04T05:59:34.588Z,36.1
2022-12-04T06:04:35.023Z,36.1
2022-12-04T06:09:35.454Z,36.1
2022-12-04T06:14:39.443Z,36.1
2022-12-04T06:19:40.014Z,36
2022-12-04T06:24:40.482Z,36
2022-12-04T06:29:40.717Z,35.9
2022-12-04T06:34:40.948Z,35.9
2022-12-04T06:39:41.178Z,35.9
2022-12-04T06:44:41.403Z,35.9
2022-12-04T06:49:41.662Z,35.9
2022-12-04T06:54:41.890Z,35.8
2022-12-04T06:59:42.109Z,35.8
2022-12-04T07:04:42.325Z,35.7
2022-12-04T07:09:42.577Z,35.7
2022-12-04T07:14:42.763Z,35.7
2022-12-04T07:19:43.206Z,35.6
2022-12-04T07:24:43.685Z,35.6
2022-12-04T07:29:44.233Z,35.6
2022-12-04T07:34:44.460Z,35.6
2022-12-04T07:39:44.911Z,35.6
2022-12-04T07:44:45.160Z,35.5
2022-12-04T07:49:45.419Z,35.5
2022-12-04T07:54:45.688Z,35.4
2022-12-04T07:59:45.896Z,35.4
2022-12-04T08:04:46.385Z,35.4
2022-12-04T08:09:46.883Z,35.4
2022-12-04T08:14:47.316Z,35.4
2022-12-04T08:19:47.774Z,35.3
2022-12-04T08:24:47.999Z,35.3
2022-12-04T08:29:48.260Z,35.2
2022-12-04T08:34:52.565Z,35.2
2022-12-04T08:39:54.698Z,35.2
2022-12-04T08:44:55.118Z,35.2
2022-12-04T08:49:55.585Z,35.2
2022-12-04T08:54:55.952Z,35.1
2022-12-04T08:59:56.312Z,35.1
2022-12-04T09:04:56.704Z,35.1
2022-12-04T09:09:57.322Z,35.1
2022-12-04T09:14:57.915Z,35
2022-12-04T09:20:01.083Z,35
2022-12-04T09:25:01.671Z,34.9
2022-12-04T09:30:02.085Z,34.9
2022-12-04T09:35:02.516Z,34.9
2022-12-04T09:40:02.982Z,34.9
2022-12-04T09:45:03.404Z,34.9
2022-12-04T09:50:03.848Z,34.8
2022-12-04T09:55:04.074Z,34.8
2022-12-04T10:00:04.640Z,34.8
2022-12-04T10:05:04.842Z,34.7
2022-12-04T10:10:05.046Z,34.7
2022-12-04T10:15:05.450Z,34.7
2022-12-04T10:20:07.520Z,34.7
2022-12-04T10:25:07.905Z,34.7
2022-12-04T10:30:08.086Z,34.6
2022-12-04T10:35:08.270Z,34.6
2022-12-04T10:40:08.753Z,34.6
2022-12-04T10:45:10.809Z,34.6
2022-12-04T10:50:11.242Z,34.5
2022-12-04T10:55:11.430Z,34.5
2022-12-04T11:00:11.862Z,34.5
2022-12-04T11:05:12.283Z,34.4
2022-12-04T11:10:12.881Z,34.4
2022-12-04T11:15:13.318Z,34.4
2022-12-04T11:20:13.740Z,34.4
2022-12-04T11:25:14.132Z,34.4
2022-12-04T11:30:16.194Z,34.3
2022-12-04T11:35:18.277Z,34.3
2022-12-04T11:40:18.695Z,33.7
2022-12-04T11:45:20.747Z,33.5
2022-12-04T11:50:22.861Z,33.4
2022-12-04T11:55:28.714Z,33.4
2022-12-04T12:00:30.976Z,33.4
2022-12-04T12:05:32.798Z,33.4
2022-12-04T12:10:36.137Z,33.4
2022-12-04T12:15:39.868Z,33.3
2022-12-04T12:20:41.941Z,33.3
2022-12-04T12:25:47.470Z,33.3
2022-12-04T12:30:53.794Z,33.2
2022-12-04T12:35:55.627Z,33.2
2022-12-04T12:40:57.673Z,33.2
2022-12-04T12:45:59.855Z,33.2
2022-12-04T12:51:15.258Z,33.2
2022-12-04T12:56:30.503Z,33.2
2022-12-04T13:01:32.422Z,33.1
2022-12-04T13:06:34.326Z,33.1
2022-12-04T13:11:36.334Z,33.1
2022-12-04T13:16:38.184Z,33.1
2022-12-04T13:21:40.078Z,33
2022-12-04T13:26:46.235Z,32.7
2022-12-04T13:31:51.015Z,32.7
2022-12-04T13:36:53.146Z,32.6
2022-12-04T13:41:55.151Z,32.6
2022-12-04T13:46:57.103Z,32.6
2022-12-04T13:51:59.154Z,32.6
2022-12-04T13:57:00.954Z,32.6
2022-12-04T14:02:07.892Z,32.6
2022-12-04T14:07:10.264Z,32.6
2022-12-04T14:12:12.294Z,32.5
2022-12-04T14:17:14.400Z,32.5
2022-12-04T14:22:16.282Z,34.2
2022-12-04T14:27:16.504Z,36.7
2022-12-04T14:32:16.789Z,39.2
2022-12-04T14:37:17.167Z,41.1
2022-12-04T14:42:17.803Z,41.8
2022-12-04T14:47:18.474Z,42.6
2022-12-04T14:52:18.903Z,42.7
2022-12-04T14:57:19.630Z,42.7
2022-12-04T15:02:20.075Z,42.8
2022-12-04T15:07:20.559Z,43.5
2022-12-04T15:12:20.999Z,44.3
2022-12-04T15:17:21.538Z,45.1
2022-12-04T15:22:22.294Z,45.2
2022-12-04T15:27:26.129Z,45.4
2022-12-04T15:32:27.974Z,45.6
2022-12-04T15:37:28.498Z,45.9
2022-12-04T15:42:29.034Z,46.3
2022-12-04T15:47:29.560Z,46
2022-12-04T15:52:30.133Z,45.9
2022-12-04T15:57:30.910Z,46.2
2022-12-04T16:02:31.454Z,46.8
2022-12-04T16:07:32.391Z,47
2022-12-04T16:12:33.217Z,47
2022-12-04T16:17:33.975Z,46.9
2022-12-04T16:22:34.807Z,46.9
2022-12-04T16:27:35.380Z,46.9
2022-12-04T16:32:36.362Z,46.9
2022-12-04T16:37:37.370Z,46.8
2022-12-04T16:42:38.169Z,46.8
2022-12-04T16:47:38.949Z,46.7
2022-12-04T16:52:39.536Z,46.7
2022-12-04T16:57:40.418Z,46.7
2022-12-04T17:02:40.983Z,46.7
2022-12-04T17:07:41.836Z,46.6
2022-12-04T17:12:42.692Z,46.6
2022-12-04T17:17:43.472Z,46.6
2022-12-04T17:22:44.259Z,46.4
2022-12-04T17:27:44.814Z,45.3
2022-12-04T17:32:45.335Z,43.7
2022-12-04T17:37:45.948Z,39.1
2022-12-04T17:42:46.271Z,38.2
2022-12-04T17:47:46.774Z,37.9
2022-12-04T17:52:47.312Z,37.7
2022-12-04T17:57:47.610Z,37.6
2022-12-04T18:02:52.953Z,37.6
2022-12-04T18:07:53.506Z,37.4
2022-12-04T18:12:53.950Z,37.3
2022-12-04T18:17:54.433Z,37.2
2022-12-04T18:22:54.647Z,37.1
2022-12-04T18:27:55.127Z,37
2022-12-04T18:32:55.389Z,36.9
2022-12-04T18:37:55.883Z,36.8
2022-12-04T18:42:56.133Z,36.7
2022-12-04T18:47:56.631Z,36.6
2022-12-04T18:53:00.053Z,36.5
2022-12-04T18:58:01.303Z,36.4
2022-12-04T19:03:01.585Z,36.4
2022-12-04T19:08:01.934Z,36.3
2022-12-04T19:13:02.235Z,36.2
2022-12-04T19:18:02.462Z,36.1
2022-12-04T19:23:02.977Z,36.1
2022-12-04T19:28:03.470Z,35.8
2022-12-04T19:33:03.691Z,35.6
2022-12-04T19:38:04.168Z,35.6
2022-12-04T19:43:04.682Z,35.5
2022-12-04T19:48:05.133Z,35.4
2022-12-04T19:53:05.554Z,35.4
2022-12-04T19:58:06.063Z,35.3
2022-12-04T20:03:06.523Z,35.2
2022-12-04T20:13:07.065Z,35.2
2022-12-04T20:18:07.297Z,35.1
2022-12-04T20:23:07.511Z,35
2022-12-04T20:28:11.495Z,34.9
2022-12-04T20:33:13.162Z,34.9
2022-12-04T20:38:13.368Z,34.8
2022-12-04T20:43:13.770Z,34.7
2022-12-04T20:48:14.200Z,34.7
2022-12-04T20:53:14.383Z,34.7
2022-12-04T20:58:14.788Z,34.6
2022-12-04T21:03:15.190Z,34.6
2022-12-04T21:08:15.403Z,34.6
2022-12-04T21:13:15.876Z,34.5
2022-12-04T21:18:17.684Z,34.4
2022-12-04T21:23:19.482Z,34.4
2022-12-04T21:28:21.540Z,34.3
2022-12-04T21:33:23.359Z,34.3
2022-12-04T21:38:25.152Z,34.2
2022-12-04T21:43:27.033Z,34.2
2022-12-04T21:48:29.090Z,34.2
2022-12-04T21:53:30.880Z,34.1
2022-12-04T21:58:32.706Z,34.1
2022-12-04T22:03:34.518Z,34.1
2022-12-04T22:08:36.348Z,34.1
2022-12-04T22:13:38.192Z,34
2022-12-04T22:18:40.050Z,33.9
2022-12-04T22:23:41.884Z,33.9
2022-12-04T22:28:43.743Z,33.9
2022-12-04T22:33:45.549Z,33.9
2022-12-04T22:39:07.954Z,33.8
2022-12-04T22:44:09.272Z,33.8
2022-12-04T22:49:11.316Z,33.7
2022-12-04T22:54:13.356Z,33.7
2022-12-04T22:59:15.601Z,33.7
2022-12-04T23:04:17.646Z,33.7
2022-12-04T23:09:19.467Z,33.6
2022-12-04T23:14:21.329Z,33.6
2022-12-04T23:19:23.163Z,33.6
2022-12-04T23:24:25.191Z,33.6
2022-12-04T23:29:51.870Z,33.5
2022-12-04T23:34:54.554Z,33.5
2022-12-04T23:39:56.780Z,33.4
2022-12-04T23:44:58.814Z,33.4
2022-12-04T23:50:00.719Z,33.4
2022-12-04T23:55:02.544Z,33.4
